sensor_id;sensor_type;location;lat;lon;timestamp;temperature;humidity
12700;DHT22;6414;49.570;6.060;2022-08-27T00:01:07;17.90;99.90
12700;DHT22;6414;49.570;6.060;2022-08-27T00:03:53;17.90;99.90
12700;DHT22;6414;49.570;6.060;2022-08-27T00:06:38;17.80;99.90
12700;DHT22;6414;49.570;6.060;2022-08-27T00:09:23;17.90;99.90
12700;DHT22;6414;49.570;6.060;2022-08-27T00:12:09;17.90;99.90
12700;DHT22;6414;49.570;6.060;2022-08-27T00:14:54;17.90;99.90
12700;DHT22;6414;49.570;6.060;2022-08-27T00:17:40;17.90;99.90
12700;DHT22;6414;49.570;6.060;2022-08-27T00:20:25;17.90;99.90
12700;DHT22;6414;49.570;6.060;2022-08-27T00:23:10;17.90;99.90
12700;DHT22;6414;49.570;6.060;2022-08-27T00:25:56;17.90;99.90
12700;DHT22;6414;49.570;6.060;2022-08-27T00:28:41;17.90;99.90
12700;DHT22;6414;49.570;6.060;2022-08-27T00:31:26;17.90;99.90
12700;DHT22;6414;49.570;6.060;2022-08-27T00:34:12;17.90;99.90
12700;DHT22;6414;49.570;6.060;2022-08-27T00:36:57;17.90;99.90
12700;DHT22;6414;49.570;6.060;2022-08-27T00:39:44;17.80;99.90
12700;DHT22;6414;49.570;6.060;2022-08-27T00:42:29;17.80;99.90
12700;DHT22;6414;49.570;6.060;2022-08-27T00:45:15;17.80;99.90
12700;DHT22;6414;49.570;6.060;2022-08-27T00:47:59;17.70;99.90
12700;DHT22;6414;49.570;6.060;2022-08-27T00:50:49;17.80;99.90
12700;DHT22;6414;49.570;6.060;2022-08-27T00:53:33;17.70;99.90
12700;DHT22;6414;49.570;6.060;2022-08-27T00:56:22;17.80;99.90
12700;DHT22;6414;49.570;6.060;2022-08-27T00:59:03;17.70;99.90
12700;DHT22;6414;49.570;6.060;2022-08-27T01:01:49;17.70;99.90
12700;DHT22;6414;49.570;6.060;2022-08-27T01:05:00;17.70;99.90
12700;DHT22;6414;49.570;6.060;2022-08-27T01:07:44;17.70;99.90
12700;DHT22;6414;49.570;6.060;2022-08-27T01:10:29;17.70;99.90
12700;DHT22;6414;49.570;6.060;2022-08-27T01:13:18;17.60;99.90
12700;DHT22;6414;49.570;6.060;2022-08-27T01:16:00;17.70;99.90
12700;DHT22;6414;49.570;6.060;2022-08-27T01:18:45;17.70;99.90
12700;DHT22;6414;49.570;6.060;2022-08-27T01:21:55;17.60;99.90
12700;DHT22;6414;49.570;6.060;2022-08-27T01:24:38;17.70;99.90
12700;DHT22;6414;49.570;6.060;2022-08-27T01:27:24;17.70;99.90
12700;DHT22;6414;49.570;6.060;2022-08-27T01:30:08;17.60;99.90
12700;DHT22;6414;49.570;6.060;2022-08-27T01:32:52;17.70;99.90
12700;DHT22;6414;49.570;6.060;2022-08-27T01:35:38;17.60;99.90
12700;DHT22;6414;49.570;6.060;2022-08-27T01:38:23;17.60;99.90
12700;DHT22;6414;49.570;6.060;2022-08-27T01:41:09;17.60;99.90
12700;DHT22;6414;49.570;6.060;2022-08-27T01:43:54;17.60;99.90
12700;DHT22;6414;49.570;6.060;2022-08-27T01:46:39;17.60;99.90
12700;DHT22;6414;49.570;6.060;2022-08-27T01:49:25;17.60;99.90
12700;DHT22;6414;49.570;6.060;2022-08-27T01:52:10;17.50;99.90
12700;DHT22;6414;49.570;6.060;2022-08-27T01:54:55;17.50;99.90
12700;DHT22;6414;49.570;6.060;2022-08-27T01:57:41;17.50;99.90
12700;DHT22;6414;49.570;6.060;2022-08-27T02:00:28;17.60;99.90
12700;DHT22;6414;49.570;6.060;2022-08-27T02:03:12;17.50;99.90
12700;DHT22;6414;49.570;6.060;2022-08-27T02:05:57;17.50;99.90
12700;DHT22;6414;49.570;6.060;2022-08-27T02:08:43;17.60;99.90
12700;DHT22;6414;49.570;6.060;2022-08-27T02:11:29;17.50;99.90
12700;DHT22;6414;49.570;6.060;2022-08-27T02:14:14;17.50;99.90
12700;DHT22;6414;49.570;6.060;2022-08-27T02:16:59;17.60;99.90
12700;DHT22;6414;49.570;6.060;2022-08-27T02:19:45;17.60;99.90
12700;DHT22;6414;49.570;6.060;2022-08-27T02:22:30;17.60;99.90
12700;DHT22;6414;49.570;6.060;2022-08-27T02:25:16;17.60;99.90
12700;DHT22;6414;49.570;6.060;2022-08-27T02:28:01;17.60;99.90
12700;DHT22;6414;49.570;6.060;2022-08-27T02:30:46;17.60;99.90
12700;DHT22;6414;49.570;6.060;2022-08-27T02:33:31;17.60;99.90
12700;DHT22;6414;49.570;6.060;2022-08-27T02:36:17;17.60;99.90
12700;DHT22;6414;49.570;6.060;2022-08-27T02:39:02;17.60;99.90
12700;DHT22;6414;49.570;6.060;2022-08-27T02:41:48;17.60;99.90
12700;DHT22;6414;49.570;6.060;2022-08-27T02:44:34;17.50;99.90
12700;DHT22;6414;49.570;6.060;2022-08-27T02:47:19;17.60;99.90
12700;DHT22;6414;49.570;6.060;2022-08-27T02:50:04;17.60;99.90
12700;DHT22;6414;49.570;6.060;2022-08-27T02:52:49;17.50;99.90
12700;DHT22;6414;49.570;6.060;2022-08-27T02:55:35;17.50;99.90
12700;DHT22;6414;49.570;6.060;2022-08-27T02:58:21;17.60;99.90
12700;DHT22;6414;49.570;6.060;2022-08-27T03:01:06;17.50;99.90
12700;DHT22;6414;49.570;6.060;2022-08-27T03:03:51;17.50;99.90
12700;DHT22;6414;49.570;6.060;2022-08-27T03:06:37;17.40;99.90
12700;DHT22;6414;49.570;6.060;2022-08-27T03:09:22;17.50;99.90
12700;DHT22;6414;49.570;6.060;2022-08-27T03:12:07;17.50;99.90
12700;DHT22;6414;49.570;6.060;2022-08-27T03:14:52;17.50;99.90
12700;DHT22;6414;49.570;6.060;2022-08-27T03:17:38;17.50;99.90
12700;DHT22;6414;49.570;6.060;2022-08-27T03:20:42;17.50;99.90
12700;DHT22;6414;49.570;6.060;2022-08-27T03:23:27;17.50;99.90
12700;DHT22;6414;49.570;6.060;2022-08-27T03:26:12;17.50;99.90
12700;DHT22;6414;49.570;6.060;2022-08-27T03:28:58;17.50;99.90
12700;DHT22;6414;49.570;6.060;2022-08-27T03:31:44;17.40;99.90
12700;DHT22;6414;49.570;6.060;2022-08-27T03:34:29;17.40;99.90
12700;DHT22;6414;49.570;6.060;2022-08-27T03:37:14;17.50;99.90
12700;DHT22;6414;49.570;6.060;2022-08-27T03:40:00;17.50;99.90
12700;DHT22;6414;49.570;6.060;2022-08-27T03:42:45;17.40;99.90
12700;DHT22;6414;49.570;6.060;2022-08-27T03:45:31;17.40;99.90
12700;DHT22;6414;49.570;6.060;2022-08-27T03:48:17;17.40;99.90
12700;DHT22;6414;49.570;6.060;2022-08-27T03:51:05;17.40;99.90
12700;DHT22;6414;49.570;6.060;2022-08-27T03:53:49;17.40;99.90
12700;DHT22;6414;49.570;6.060;2022-08-27T03:56:35;17.40;99.90
12700;DHT22;6414;49.570;6.060;2022-08-27T03:59:20;17.50;99.90
12700;DHT22;6414;49.570;6.060;2022-08-27T04:02:06;17.50;99.90
12700;DHT22;6414;49.570;6.060;2022-08-27T04:04:51;17.50;99.90
12700;DHT22;6414;49.570;6.060;2022-08-27T04:07:37;17.50;99.90
12700;DHT22;6414;49.570;6.060;2022-08-27T04:10:22;17.40;99.90
12700;DHT22;6414;49.570;6.060;2022-08-27T04:13:07;17.40;99.90
12700;DHT22;6414;49.570;6.060;2022-08-27T04:15:53;17.40;99.90
12700;DHT22;6414;49.570;6.060;2022-08-27T04:18:39;17.30;99.90
12700;DHT22;6414;49.570;6.060;2022-08-27T04:21:25;17.30;99.90
12700;DHT22;6414;49.570;6.060;2022-08-27T04:24:10;17.30;99.90
12700;DHT22;6414;49.570;6.060;2022-08-27T04:26:55;17.30;99.90
12700;DHT22;6414;49.570;6.060;2022-08-27T04:29:41;17.30;99.90
12700;DHT22;6414;49.570;6.060;2022-08-27T04:32:26;17.30;99.90
12700;DHT22;6414;49.570;6.060;2022-08-27T04:35:11;17.40;99.90
12700;DHT22;6414;49.570;6.060;2022-08-27T04:37:57;17.40;99.90
12700;DHT22;6414;49.570;6.060;2022-08-27T04:40:43;17.40;99.90
12700;DHT22;6414;49.570;6.060;2022-08-27T04:43:51;17.40;99.90
12700;DHT22;6414;49.570;6.060;2022-08-27T04:46:34;17.40;99.90
12700;DHT22;6414;49.570;6.060;2022-08-27T04:49:17;17.40;99.90
12700;DHT22;6414;49.570;6.060;2022-08-27T04:52:03;17.50;99.90
12700;DHT22;6414;49.570;6.060;2022-08-27T04:54:48;17.40;99.90
12700;DHT22;6414;49.570;6.060;2022-08-27T04:57:33;17.40;99.90
12700;DHT22;6414;49.570;6.060;2022-08-27T05:00:19;17.40;99.90
12700;DHT22;6414;49.570;6.060;2022-08-27T05:03:04;17.40;99.90
12700;DHT22;6414;49.570;6.060;2022-08-27T05:05:50;17.40;99.90
12700;DHT22;6414;49.570;6.060;2022-08-27T05:08:35;17.40;99.90
12700;DHT22;6414;49.570;6.060;2022-08-27T05:11:20;17.30;99.90
12700;DHT22;6414;49.570;6.060;2022-08-27T05:14:07;17.40;99.90
12700;DHT22;6414;49.570;6.060;2022-08-27T05:16:51;17.40;99.90
12700;DHT22;6414;49.570;6.060;2022-08-27T05:19:37;17.40;99.90
12700;DHT22;6414;49.570;6.060;2022-08-27T05:22:22;17.40;99.90
12700;DHT22;6414;49.570;6.060;2022-08-27T05:25:08;17.40;99.90
12700;DHT22;6414;49.570;6.060;2022-08-27T05:27:53;17.40;99.90
12700;DHT22;6414;49.570;6.060;2022-08-27T05:30:40;17.50;99.90
12700;DHT22;6414;49.570;6.060;2022-08-27T05:33:24;17.40;99.90
12700;DHT22;6414;49.570;6.060;2022-08-27T05:36:21;17.50;99.90
12700;DHT22;6414;49.570;6.060;2022-08-27T05:39:02;17.40;99.90
12700;DHT22;6414;49.570;6.060;2022-08-27T05:41:47;17.40;99.90
12700;DHT22;6414;49.570;6.060;2022-08-27T05:44:32;17.50;99.90
12700;DHT22;6414;49.570;6.060;2022-08-27T05:47:18;17.40;99.90
12700;DHT22;6414;49.570;6.060;2022-08-27T05:50:03;17.40;99.90
12700;DHT22;6414;49.570;6.060;2022-08-27T05:52:48;17.40;99.90
12700;DHT22;6414;49.570;6.060;2022-08-27T05:55:37;17.40;99.90
12700;DHT22;6414;49.570;6.060;2022-08-27T05:58:23;17.50;99.90
12700;DHT22;6414;49.570;6.060;2022-08-27T06:01:26;17.50;99.90
12700;DHT22;6414;49.570;6.060;2022-08-27T06:04:12;17.50;99.90
12700;DHT22;6414;49.570;6.060;2022-08-27T06:06:57;17.40;99.90
12700;DHT22;6414;49.570;6.060;2022-08-27T06:09:43;17.50;99.90
12700;DHT22;6414;49.570;6.060;2022-08-27T06:12:28;17.50;99.90
12700;DHT22;6414;49.570;6.060;2022-08-27T06:15:15;17.60;99.90
12700;DHT22;6414;49.570;6.060;2022-08-27T06:18:00;17.60;99.90
12700;DHT22;6414;49.570;6.060;2022-08-27T06:20:47;17.60;99.90
12700;DHT22;6414;49.570;6.060;2022-08-27T06:23:32;17.60;99.90
12700;DHT22;6414;49.570;6.060;2022-08-27T06:26:17;17.60;99.90
12700;DHT22;6414;49.570;6.060;2022-08-27T06:29:03;17.60;99.90
12700;DHT22;6414;49.570;6.060;2022-08-27T06:31:48;17.70;99.90
12700;DHT22;6414;49.570;6.060;2022-08-27T06:34:34;17.80;99.90
12700;DHT22;6414;49.570;6.060;2022-08-27T06:37:19;17.80;99.90
12700;DHT22;6414;49.570;6.060;2022-08-27T06:40:06;17.70;99.90
12700;DHT22;6414;49.570;6.060;2022-08-27T06:42:52;17.70;99.90
12700;DHT22;6414;49.570;6.060;2022-08-27T06:45:38;17.70;99.90
12700;DHT22;6414;49.570;6.060;2022-08-27T06:48:23;17.70;99.90
12700;DHT22;6414;49.570;6.060;2022-08-27T06:51:09;17.70;99.90
12700;DHT22;6414;49.570;6.060;2022-08-27T06:53:54;17.90;99.90
12700;DHT22;6414;49.570;6.060;2022-08-27T06:56:40;17.70;99.90
12700;DHT22;6414;49.570;6.060;2022-08-27T06:59:25;17.80;99.90
12700;DHT22;6414;49.570;6.060;2022-08-27T07:02:10;17.80;99.90
12700;DHT22;6414;49.570;6.060;2022-08-27T07:04:55;17.70;99.90
12700;DHT22;6414;49.570;6.060;2022-08-27T07:07:41;17.80;99.90
12700;DHT22;6414;49.570;6.060;2022-08-27T07:10:26;17.90;99.90
12700;DHT22;6414;49.570;6.060;2022-08-27T07:13:11;18.00;99.90
12700;DHT22;6414;49.570;6.060;2022-08-27T07:15:57;17.90;99.90
12700;DHT22;6414;49.570;6.060;2022-08-27T07:18:42;17.80;99.90
12700;DHT22;6414;49.570;6.060;2022-08-27T07:21:28;17.80;99.90
12700;DHT22;6414;49.570;6.060;2022-08-27T07:24:13;18.00;99.90
12700;DHT22;6414;49.570;6.060;2022-08-27T07:26:58;18.00;99.90
12700;DHT22;6414;49.570;6.060;2022-08-27T07:29:44;18.10;99.90
12700;DHT22;6414;49.570;6.060;2022-08-27T07:32:29;17.90;99.90
12700;DHT22;6414;49.570;6.060;2022-08-27T07:35:14;18.00;99.90
12700;DHT22;6414;49.570;6.060;2022-08-27T07:38:00;18.10;99.90
12700;DHT22;6414;49.570;6.060;2022-08-27T07:40:45;18.10;99.90
12700;DHT22;6414;49.570;6.060;2022-08-27T07:43:31;18.10;99.90
12700;DHT22;6414;49.570;6.060;2022-08-27T07:46:28;18.00;99.90
12700;DHT22;6414;49.570;6.060;2022-08-27T07:49:14;18.00;99.90
12700;DHT22;6414;49.570;6.060;2022-08-27T07:52:00;18.00;99.90
12700;DHT22;6414;49.570;6.060;2022-08-27T07:54:45;18.10;99.90
12700;DHT22;6414;49.570;6.060;2022-08-27T07:57:30;18.10;99.90
12700;DHT22;6414;49.570;6.060;2022-08-27T08:00:16;18.20;99.90
12700;DHT22;6414;49.570;6.060;2022-08-27T08:03:02;18.30;99.90
12700;DHT22;6414;49.570;6.060;2022-08-27T08:05:47;18.30;99.90
12700;DHT22;6414;49.570;6.060;2022-08-27T08:08:33;18.20;99.90
12700;DHT22;6414;49.570;6.060;2022-08-27T08:11:18;18.30;99.90
12700;DHT22;6414;49.570;6.060;2022-08-27T08:14:03;18.30;99.90
12700;DHT22;6414;49.570;6.060;2022-08-27T08:16:49;18.40;99.90
12700;DHT22;6414;49.570;6.060;2022-08-27T08:19:34;18.50;99.90
12700;DHT22;6414;49.570;6.060;2022-08-27T08:22:19;18.50;99.90
12700;DHT22;6414;49.570;6.060;2022-08-27T08:25:05;18.40;99.90
12700;DHT22;6414;49.570;6.060;2022-08-27T08:27:51;18.40;99.90
12700;DHT22;6414;49.570;6.060;2022-08-27T08:30:36;18.40;99.90
12700;DHT22;6414;49.570;6.060;2022-08-27T08:33:21;18.50;99.90
12700;DHT22;6414;49.570;6.060;2022-08-27T08:36:09;18.30;99.90
12700;DHT22;6414;49.570;6.060;2022-08-27T08:38:52;18.60;99.90
12700;DHT22;6414;49.570;6.060;2022-08-27T08:41:42;18.70;99.90
12700;DHT22;6414;49.570;6.060;2022-08-27T08:47:22;18.80;99.90
12700;DHT22;6414;49.570;6.060;2022-08-27T08:50:20;18.70;99.90
12700;DHT22;6414;49.570;6.060;2022-08-27T08:53:06;18.60;99.90
12700;DHT22;6414;49.570;6.060;2022-08-27T08:56:00;18.60;99.90
12700;DHT22;6414;49.570;6.060;2022-08-27T08:58:54;18.70;99.90
12700;DHT22;6414;49.570;6.060;2022-08-27T09:01:36;18.60;99.90
12700;DHT22;6414;49.570;6.060;2022-08-27T09:04:22;18.60;99.90
12700;DHT22;6414;49.570;6.060;2022-08-27T09:10:17;18.60;99.90
12700;DHT22;6414;49.570;6.060;2022-08-27T09:13:00;18.80;99.90
12700;DHT22;6414;49.570;6.060;2022-08-27T09:15:43;18.90;99.90
12700;DHT22;6414;49.570;6.060;2022-08-27T09:18:29;19.10;99.90
12700;DHT22;6414;49.570;6.060;2022-08-27T09:24:25;19.10;99.90
12700;DHT22;6414;49.570;6.060;2022-08-27T09:27:06;18.90;99.90
12700;DHT22;6414;49.570;6.060;2022-08-27T09:29:52;18.90;99.90
12700;DHT22;6414;49.570;6.060;2022-08-27T09:32:36;18.90;99.90
12700;DHT22;6414;49.570;6.060;2022-08-27T09:35:23;18.80;99.90
12700;DHT22;6414;49.570;6.060;2022-08-27T09:38:07;18.80;99.90
12700;DHT22;6414;49.570;6.060;2022-08-27T09:40:54;18.90;99.90
12700;DHT22;6414;49.570;6.060;2022-08-27T09:43:38;18.90;99.90
12700;DHT22;6414;49.570;6.060;2022-08-27T09:46:25;18.90;99.90
12700;DHT22;6414;49.570;6.060;2022-08-27T09:49:14;18.90;99.90
12700;DHT22;6414;49.570;6.060;2022-08-27T09:51:58;18.90;99.90
12700;DHT22;6414;49.570;6.060;2022-08-27T09:54:47;19.00;99.90
12700;DHT22;6414;49.570;6.060;2022-08-27T09:57:33;18.90;99.90
12700;DHT22;6414;49.570;6.060;2022-08-27T10:00:15;19.10;99.90
12700;DHT22;6414;49.570;6.060;2022-08-27T10:03:01;19.00;99.90
12700;DHT22;6414;49.570;6.060;2022-08-27T10:05:49;18.90;99.90
12700;DHT22;6414;49.570;6.060;2022-08-27T10:08:40;18.90;99.90
12700;DHT22;6414;49.570;6.060;2022-08-27T10:11:33;18.90;99.90
12700;DHT22;6414;49.570;6.060;2022-08-27T10:14:19;19.20;99.90
12700;DHT22;6414;49.570;6.060;2022-08-27T10:17:16;19.30;99.90
12700;DHT22;6414;49.570;6.060;2022-08-27T10:23:19;19.30;99.90
12700;DHT22;6414;49.570;6.060;2022-08-27T10:26:17;19.40;99.90
12700;DHT22;6414;49.570;6.060;2022-08-27T10:35:25;19.30;99.90
12700;DHT22;6414;49.570;6.060;2022-08-27T10:38:30;19.00;99.90
12700;DHT22;6414;49.570;6.060;2022-08-27T10:41:09;19.10;99.90
12700;DHT22;6414;49.570;6.060;2022-08-27T10:49:42;19.30;99.90
12700;DHT22;6414;49.570;6.060;2022-08-27T10:52:35;19.30;99.90
12700;DHT22;6414;49.570;6.060;2022-08-27T10:55:29;19.60;99.90
12700;DHT22;6414;49.570;6.060;2022-08-27T10:58:21;19.60;99.90
12700;DHT22;6414;49.570;6.060;2022-08-27T11:01:05;19.80;99.90
12700;DHT22;6414;49.570;6.060;2022-08-27T11:03:59;19.70;99.90
12700;DHT22;6414;49.570;6.060;2022-08-27T11:06:54;19.70;99.90
12700;DHT22;6414;49.570;6.060;2022-08-27T11:09:46;19.90;99.90
12700;DHT22;6414;49.570;6.060;2022-08-27T11:12:36;19.80;99.90
12700;DHT22;6414;49.570;6.060;2022-08-27T11:15:35;20.00;99.90
12700;DHT22;6414;49.570;6.060;2022-08-27T11:18:26;19.90;99.90
12700;DHT22;6414;49.570;6.060;2022-08-27T11:21:30;20.10;99.90
12700;DHT22;6414;49.570;6.060;2022-08-27T11:24:23;20.10;99.90
12700;DHT22;6414;49.570;6.060;2022-08-27T11:27:07;20.10;99.90
12700;DHT22;6414;49.570;6.060;2022-08-27T11:29:57;20.20;99.90
12700;DHT22;6414;49.570;6.060;2022-08-27T11:35:41;20.40;99.90
12700;DHT22;6414;49.570;6.060;2022-08-27T11:38:29;20.60;99.90
12700;DHT22;6414;49.570;6.060;2022-08-27T11:44:31;20.60;99.90
12700;DHT22;6414;49.570;6.060;2022-08-27T11:47:21;20.60;99.90
12700;DHT22;6414;49.570;6.060;2022-08-27T11:50:06;20.90;99.90
12700;DHT22;6414;49.570;6.060;2022-08-27T11:52:55;21.20;99.90
12700;DHT22;6414;49.570;6.060;2022-08-27T11:55:39;21.30;99.90
12700;DHT22;6414;49.570;6.060;2022-08-27T11:58:26;20.70;99.90
12700;DHT22;6414;49.570;6.060;2022-08-27T12:01:26;20.80;99.90
12700;DHT22;6414;49.570;6.060;2022-08-27T12:15:48;20.50;99.90
12700;DHT22;6414;49.570;6.060;2022-08-27T12:21:50;20.70;99.90
12700;DHT22;6414;49.570;6.060;2022-08-27T12:24:46;21.10;99.90
12700;DHT22;6414;49.570;6.060;2022-08-27T12:27:28;20.70;99.90
12700;DHT22;6414;49.570;6.060;2022-08-27T12:30:30;20.90;99.90
12700;DHT22;6414;49.570;6.060;2022-08-27T12:33:25;21.00;99.90
12700;DHT22;6414;49.570;6.060;2022-08-27T12:36:12;21.00;99.90
12700;DHT22;6414;49.570;6.060;2022-08-27T12:38:56;20.90;99.90
12700;DHT22;6414;49.570;6.060;2022-08-27T12:41:43;20.80;99.90
12700;DHT22;6414;49.570;6.060;2022-08-27T12:44:30;20.70;99.90
12700;DHT22;6414;49.570;6.060;2022-08-27T12:47:13;20.60;99.90
12700;DHT22;6414;49.570;6.060;2022-08-27T12:49:59;20.60;99.90
12700;DHT22;6414;49.570;6.060;2022-08-27T12:56:04;20.80;99.90
12700;DHT22;6414;49.570;6.060;2022-08-27T12:58:49;20.80;99.90
12700;DHT22;6414;49.570;6.060;2022-08-27T13:01:47;20.70;99.90
12700;DHT22;6414;49.570;6.060;2022-08-27T13:04:30;20.70;99.90
12700;DHT22;6414;49.570;6.060;2022-08-27T13:07:25;21.00;99.90
12700;DHT22;6414;49.570;6.060;2022-08-27T13:10:20;21.00;99.90
12700;DHT22;6414;49.570;6.060;2022-08-27T13:13:11;20.90;99.90
12700;DHT22;6414;49.570;6.060;2022-08-27T13:15:56;21.00;99.90
12700;DHT22;6414;49.570;6.060;2022-08-27T13:18:41;21.10;99.90
12700;DHT22;6414;49.570;6.060;2022-08-27T13:21:27;21.10;99.90
12700;DHT22;6414;49.570;6.060;2022-08-27T13:24:12;21.20;99.90
12700;DHT22;6414;49.570;6.060;2022-08-27T13:26:57;21.00;99.90
12700;DHT22;6414;49.570;6.060;2022-08-27T13:29:42;21.00;99.90
12700;DHT22;6414;49.570;6.060;2022-08-27T13:32:27;21.10;99.90
12700;DHT22;6414;49.570;6.060;2022-08-27T13:35:13;21.10;99.90
12700;DHT22;6414;49.570;6.060;2022-08-27T13:37:58;20.90;99.90
12700;DHT22;6414;49.570;6.060;2022-08-27T13:43:42;21.10;99.90
12700;DHT22;6414;49.570;6.060;2022-08-27T13:46:27;21.30;99.90
12700;DHT22;6414;49.570;6.060;2022-08-27T13:49:13;21.10;99.90
12700;DHT22;6414;49.570;6.060;2022-08-27T13:55:08;21.40;99.90
12700;DHT22;6414;49.570;6.060;2022-08-27T13:57:53;21.20;99.90
12700;DHT22;6414;49.570;6.060;2022-08-27T14:00:38;21.30;99.90
12700;DHT22;6414;49.570;6.060;2022-08-27T14:03:33;21.20;99.90
12700;DHT22;6414;49.570;6.060;2022-08-27T14:06:28;21.40;99.90
12700;DHT22;6414;49.570;6.060;2022-08-27T14:09:20;21.40;99.90
12700;DHT22;6414;49.570;6.060;2022-08-27T14:12:05;21.60;99.90
12700;DHT22;6414;49.570;6.060;2022-08-27T14:14:49;21.80;99.90
12700;DHT22;6414;49.570;6.060;2022-08-27T14:17:35;21.40;99.90
12700;DHT22;6414;49.570;6.060;2022-08-27T14:20:20;21.60;99.90
12700;DHT22;6414;49.570;6.060;2022-08-27T14:23:05;21.50;99.90
12700;DHT22;6414;49.570;6.060;2022-08-27T14:25:52;21.50;99.90
12700;DHT22;6414;49.570;6.060;2022-08-27T14:28:37;21.60;99.90
12700;DHT22;6414;49.570;6.060;2022-08-27T14:31:22;21.50;99.90
12700;DHT22;6414;49.570;6.060;2022-08-27T14:34:07;21.50;99.90
12700;DHT22;6414;49.570;6.060;2022-08-27T14:36:52;21.60;99.90
12700;DHT22;6414;49.570;6.060;2022-08-27T14:39:38;21.40;99.90
12700;DHT22;6414;49.570;6.060;2022-08-27T14:42:24;21.50;99.90
12700;DHT22;6414;49.570;6.060;2022-08-27T14:45:09;21.50;99.90
12700;DHT22;6414;49.570;6.060;2022-08-27T14:47:55;21.50;99.90
12700;DHT22;6414;49.570;6.060;2022-08-27T14:50:40;21.50;99.90
12700;DHT22;6414;49.570;6.060;2022-08-27T14:53:26;21.50;99.90
12700;DHT22;6414;49.570;6.060;2022-08-27T14:56:11;21.60;99.90
12700;DHT22;6414;49.570;6.060;2022-08-27T14:58:57;21.60;99.90
12700;DHT22;6414;49.570;6.060;2022-08-27T15:01:42;21.60;99.90
12700;DHT22;6414;49.570;6.060;2022-08-27T15:04:28;21.70;99.90
12700;DHT22;6414;49.570;6.060;2022-08-27T15:07:13;21.70;99.90
12700;DHT22;6414;49.570;6.060;2022-08-27T15:09:58;21.70;99.90
12700;DHT22;6414;49.570;6.060;2022-08-27T15:12:43;21.70;99.90
12700;DHT22;6414;49.570;6.060;2022-08-27T15:15:29;21.90;99.90
12700;DHT22;6414;49.570;6.060;2022-08-27T15:18:15;21.90;99.90
12700;DHT22;6414;49.570;6.060;2022-08-27T15:21:00;21.90;99.90
12700;DHT22;6414;49.570;6.060;2022-08-27T15:23:46;21.90;99.90
12700;DHT22;6414;49.570;6.060;2022-08-27T15:26:31;21.70;99.90
12700;DHT22;6414;49.570;6.060;2022-08-27T15:29:17;21.70;99.90
12700;DHT22;6414;49.570;6.060;2022-08-27T15:32:02;21.80;99.90
12700;DHT22;6414;49.570;6.060;2022-08-27T15:34:48;21.80;99.90
12700;DHT22;6414;49.570;6.060;2022-08-27T15:37:33;21.90;99.90
12700;DHT22;6414;49.570;6.060;2022-08-27T15:40:19;21.80;99.90
12700;DHT22;6414;49.570;6.060;2022-08-27T15:43:05;21.90;99.90
12700;DHT22;6414;49.570;6.060;2022-08-27T15:45:50;21.90;99.90
12700;DHT22;6414;49.570;6.060;2022-08-27T15:48:35;22.00;99.90
12700;DHT22;6414;49.570;6.060;2022-08-27T15:51:30;22.30;99.90
12700;DHT22;6414;49.570;6.060;2022-08-27T15:54:15;22.30;92.10
12700;DHT22;6414;49.570;6.060;2022-08-27T15:57:00;22.20;99.90
12700;DHT22;6414;49.570;6.060;2022-08-27T15:59:45;21.90;98.60
12700;DHT22;6414;49.570;6.060;2022-08-27T16:02:30;21.60;99.90
12700;DHT22;6414;49.570;6.060;2022-08-27T16:05:16;21.50;99.90
12700;DHT22;6414;49.570;6.060;2022-08-27T16:08:01;21.60;99.90
12700;DHT22;6414;49.570;6.060;2022-08-27T16:10:47;21.60;99.90
12700;DHT22;6414;49.570;6.060;2022-08-27T16:13:32;21.60;99.90
12700;DHT22;6414;49.570;6.060;2022-08-27T16:16:19;21.40;99.90
12700;DHT22;6414;49.570;6.060;2022-08-27T16:19:03;21.30;99.90
12700;DHT22;6414;49.570;6.060;2022-08-27T16:21:49;21.30;99.90
12700;DHT22;6414;49.570;6.060;2022-08-27T16:24:34;21.30;99.90
12700;DHT22;6414;49.570;6.060;2022-08-27T16:27:20;21.30;99.90
12700;DHT22;6414;49.570;6.060;2022-08-27T16:30:05;21.30;99.90
12700;DHT22;6414;49.570;6.060;2022-08-27T16:32:50;21.20;99.90
12700;DHT22;6414;49.570;6.060;2022-08-27T16:35:38;21.20;99.90
12700;DHT22;6414;49.570;6.060;2022-08-27T16:38:23;21.10;99.90
12700;DHT22;6414;49.570;6.060;2022-08-27T16:41:08;21.10;99.90
12700;DHT22;6414;49.570;6.060;2022-08-27T16:43:54;21.00;99.90
12700;DHT22;6414;49.570;6.060;2022-08-27T16:46:40;21.10;99.90
12700;DHT22;6414;49.570;6.060;2022-08-27T16:49:25;21.10;99.90
12700;DHT22;6414;49.570;6.060;2022-08-27T16:52:29;21.10;99.90
12700;DHT22;6414;49.570;6.060;2022-08-27T16:55:14;20.90;99.90
12700;DHT22;6414;49.570;6.060;2022-08-27T16:57:59;20.90;99.90
12700;DHT22;6414;49.570;6.060;2022-08-27T17:00:45;20.90;99.90
12700;DHT22;6414;49.570;6.060;2022-08-27T17:03:30;20.90;99.90
12700;DHT22;6414;49.570;6.060;2022-08-27T17:06:16;20.80;99.90
12700;DHT22;6414;49.570;6.060;2022-08-27T17:09:01;20.80;99.90
12700;DHT22;6414;49.570;6.060;2022-08-27T17:11:49;20.70;99.90
12700;DHT22;6414;49.570;6.060;2022-08-27T17:14:32;20.70;99.90
12700;DHT22;6414;49.570;6.060;2022-08-27T17:17:17;20.70;99.90
12700;DHT22;6414;49.570;6.060;2022-08-27T17:20:03;20.60;99.90
12700;DHT22;6414;49.570;6.060;2022-08-27T17:22:48;20.60;99.90
12700;DHT22;6414;49.570;6.060;2022-08-27T17:25:34;20.50;99.90
12700;DHT22;6414;49.570;6.060;2022-08-27T17:28:19;20.40;99.90
12700;DHT22;6414;49.570;6.060;2022-08-27T17:31:05;20.40;99.90
12700;DHT22;6414;49.570;6.060;2022-08-27T17:33:51;20.30;99.90
12700;DHT22;6414;49.570;6.060;2022-08-27T17:36:36;20.20;99.90
12700;DHT22;6414;49.570;6.060;2022-08-27T17:39:22;20.20;99.90
12700;DHT22;6414;49.570;6.060;2022-08-27T17:42:07;20.00;99.90
12700;DHT22;6414;49.570;6.060;2022-08-27T17:44:52;19.90;99.90
12700;DHT22;6414;49.570;6.060;2022-08-27T17:47:38;19.70;99.90
12700;DHT22;6414;49.570;6.060;2022-08-27T17:50:24;19.70;99.90
12700;DHT22;6414;49.570;6.060;2022-08-27T17:53:09;19.60;99.90
12700;DHT22;6414;49.570;6.060;2022-08-27T17:55:55;19.60;99.90
12700;DHT22;6414;49.570;6.060;2022-08-27T17:58:40;19.40;99.90
12700;DHT22;6414;49.570;6.060;2022-08-27T18:01:27;19.30;99.90
12700;DHT22;6414;49.570;6.060;2022-08-27T18:04:11;19.30;99.90
12700;DHT22;6414;49.570;6.060;2022-08-27T18:06:57;19.20;99.90
12700;DHT22;6414;49.570;6.060;2022-08-27T18:09:42;19.10;99.90
12700;DHT22;6414;49.570;6.060;2022-08-27T18:12:28;18.90;99.90
12700;DHT22;6414;49.570;6.060;2022-08-27T18:15:18;18.90;99.90
12700;DHT22;6414;49.570;6.060;2022-08-27T18:18:03;18.80;99.90
12700;DHT22;6414;49.570;6.060;2022-08-27T18:20:47;18.80;99.90
12700;DHT22;6414;49.570;6.060;2022-08-27T18:23:33;18.70;99.90
12700;DHT22;6414;49.570;6.060;2022-08-27T18:26:18;18.60;99.90
12700;DHT22;6414;49.570;6.060;2022-08-27T18:29:03;18.60;99.90
12700;DHT22;6414;49.570;6.060;2022-08-27T18:31:49;18.50;99.90
12700;DHT22;6414;49.570;6.060;2022-08-27T18:34:34;18.40;99.90
12700;DHT22;6414;49.570;6.060;2022-08-27T18:37:20;18.40;99.90
12700;DHT22;6414;49.570;6.060;2022-08-27T18:40:05;18.30;99.90
12700;DHT22;6414;49.570;6.060;2022-08-27T18:42:50;18.30;99.90